sensor_id;sensor_type;location;lat;lon;timestamp;pressure;altitude;pressure_sealevel;temperature;humidity
83894;BME280;73920;51.902;6.374;2023-12-14T00:00:49;100804.44;;;6.78;87.39
83894;BME280;73920;51.902;6.374;2023-12-14T00:03:15;100801.66;;;6.81;87.47
83894;BME280;73920;51.902;6.374;2023-12-14T00:05:41;100810.47;;;6.83;87.09
83894;BME280;73920;51.902;6.374;2023-12-14T00:08:07;100807.84;;;6.81;87.14
83894;BME280;73920;51.902;6.374;2023-12-14T00:10:33;100813.28;;;6.78;87.08
83894;BME280;73920;51.902;6.374;2023-12-14T00:13:00;100811.62;;;6.76;86.96
83894;BME280;73920;51.902;6.374;2023-12-14T00:15:26;100822.06;;;6.80;87.12
83894;BME280;73920;51.902;6.374;2023-12-14T00:17:52;100830.09;;;6.79;86.56
83894;BME280;73920;51.902;6.374;2023-12-14T00:20:18;100835.62;;;6.73;86.60
83894;BME280;73920;51.902;6.374;2023-12-14T00:22:44;100830.44;;;6.70;86.48
83894;BME280;73920;51.902;6.374;2023-12-14T00:25:11;100839.38;;;6.69;86.87
83894;BME280;73920;51.902;6.374;2023-12-14T00:27:37;100845.66;;;6.66;86.45
83894;BME280;73920;51.902;6.374;2023-12-14T00:30:04;100855.47;;;6.64;86.82
83894;BME280;73920;51.902;6.374;2023-12-14T00:32:30;100858.13;;;6.64;86.69
83894;BME280;73920;51.902;6.374;2023-12-14T00:34:56;100862.44;;;6.67;86.92
83894;BME280;73920;51.902;6.374;2023-12-14T00:37:23;100857.13;;;6.67;86.86
83894;BME280;73920;51.902;6.374;2023-12-14T00:39:49;100866.84;;;6.68;86.63
83894;BME280;73920;51.902;6.374;2023-12-14T00:42:15;100868.59;;;6.69;86.63
83894;BME280;73920;51.902;6.374;2023-12-14T00:44:41;100873.03;;;6.68;86.79
83894;BME280;73920;51.902;6.374;2023-12-14T00:47:07;100874.00;;;6.66;86.32
83894;BME280;73920;51.902;6.374;2023-12-14T00:49:33;100881.94;;;6.67;86.51
83894;BME280;73920;51.902;6.374;2023-12-14T00:52:00;100891.56;;;6.70;86.49
83894;BME280;73920;51.902;6.374;2023-12-14T00:54:26;100891.69;;;6.67;86.64
83894;BME280;73920;51.902;6.374;2023-12-14T00:56:52;100899.66;;;6.67;86.49
83894;BME280;73920;51.902;6.374;2023-12-14T00:59:18;100908.66;;;6.63;86.07
83894;BME280;73920;51.902;6.374;2023-12-14T01:01:44;100913.97;;;6.63;86.20
83894;BME280;73920;51.902;6.374;2023-12-14T01:04:11;100917.56;;;6.62;86.43
83894;BME280;73920;51.902;6.374;2023-12-14T01:06:37;100931.69;;;6.62;86.27
83894;BME280;73920;51.902;6.374;2023-12-14T01:09:03;100940.53;;;6.63;86.56
83894;BME280;73920;51.902;6.374;2023-12-14T01:11:29;100938.91;;;6.59;86.16
83894;BME280;73920;51.902;6.374;2023-12-14T01:13:55;100947.88;;;6.56;86.12
83894;BME280;73920;51.902;6.374;2023-12-14T01:16:22;100953.25;;;6.55;86.42
83894;BME280;73920;51.902;6.374;2023-12-14T01:18:51;100945.37;;;6.52;86.19
83894;BME280;73920;51.902;6.374;2023-12-14T01:21:17;100957.78;;;6.51;86.15
83894;BME280;73920;51.902;6.374;2023-12-14T01:23:43;100964.09;;;6.49;86.26
83894;BME280;73920;51.902;6.374;2023-12-14T01:26:10;100972.97;;;6.48;86.04
83894;BME280;73920;51.902;6.374;2023-12-14T01:28:36;100976.56;;;6.47;86.06
83894;BME280;73920;51.902;6.374;2023-12-14T01:31:02;100978.38;;;6.44;86.03
83894;BME280;73920;51.902;6.374;2023-12-14T01:33:29;100981.12;;;6.43;85.85
83894;BME280;73920;51.902;6.374;2023-12-14T01:35:55;100980.25;;;6.42;86.17
83894;BME280;73920;51.902;6.374;2023-12-14T01:38:21;100987.38;;;6.40;86.28
83894;BME280;73920;51.902;6.374;2023-12-14T01:40:47;100991.75;;;6.43;86.12
83894;BME280;73920;51.902;6.374;2023-12-14T01:43:13;101001.38;;;6.46;85.99
83894;BME280;73920;51.902;6.374;2023-12-14T01:45:40;101005.78;;;6.47;86.08
83894;BME280;73920;51.902;6.374;2023-12-14T01:48:06;101006.69;;;6.46;86.31
83894;BME280;73920;51.902;6.374;2023-12-14T01:50:32;101006.69;;;6.46;85.90
83894;BME280;73920;51.902;6.374;2023-12-14T01:52:58;101012.12;;;6.42;86.09
83894;BME280;73920;51.902;6.374;2023-12-14T01:55:24;101015.78;;;6.38;85.95
83894;BME280;73920;51.902;6.374;2023-12-14T01:57:51;101020.31;;;6.36;85.98
83894;BME280;73920;51.902;6.374;2023-12-14T02:00:46;101022.12;;;6.34;86.37
83894;BME280;73920;51.902;6.374;2023-12-14T02:03:10;101029.22;;;6.34;86.19
83894;BME280;73920;51.902;6.374;2023-12-14T02:05:37;101036.38;;;6.32;86.28
83894;BME280;73920;51.902;6.374;2023-12-14T02:08:04;101039.09;;;6.30;86.14
83894;BME280;73920;51.902;6.374;2023-12-14T02:10:30;101050.63;;;6.29;86.39
83894;BME280;73920;51.902;6.374;2023-12-14T02:12:56;101046.25;;;6.28;86.36
83894;BME280;73920;51.902;6.374;2023-12-14T02:15:23;101050.72;;;6.26;86.54
83894;BME280;73920;51.902;6.374;2023-12-14T02:17:49;101055.16;;;6.26;86.48
83894;BME280;73920;51.902;6.374;2023-12-14T02:20:16;101049.81;;;6.27;86.53
83894;BME280;73920;51.902;6.374;2023-12-14T02:25:19;101065.84;;;6.24;86.51
83894;BME280;73920;51.902;6.374;2023-12-14T02:27:46;101065.97;;;6.21;86.52
83894;BME280;73920;51.902;6.374;2023-12-14T02:30:13;101066.06;;;6.18;86.55
83894;BME280;73920;51.902;6.374;2023-12-14T02:32:39;101074.97;;;6.16;86.53
83894;BME280;73920;51.902;6.374;2023-12-14T02:35:06;101078.72;;;6.10;86.48
83894;BME280;73920;51.902;6.374;2023-12-14T02:37:34;101080.47;;;6.11;86.62
83894;BME280;73920;51.902;6.374;2023-12-14T02:40:01;101078.72;;;6.10;86.68
83894;BME280;73920;51.902;6.374;2023-12-14T02:42:27;101083.19;;;6.08;86.47
83894;BME280;73920;51.902;6.374;2023-12-14T02:44:53;101085.00;;;6.08;86.43
83894;BME280;73920;51.902;6.374;2023-12-14T02:47:19;101080.63;;;6.05;86.37
83894;BME280;73920;51.902;6.374;2023-12-14T02:49:46;101090.44;;;6.03;86.42
83894;BME280;73920;51.902;6.374;2023-12-14T02:52:12;101100.06;;;6.07;86.61
83894;BME280;73920;51.902;6.374;2023-12-14T02:54:39;101095.50;;;6.11;86.71
83894;BME280;73920;51.902;6.374;2023-12-14T02:57:05;101104.19;;;6.16;86.54
83894;BME280;73920;51.902;6.374;2023-12-14T02:59:32;101105.97;;;6.15;86.48
83894;BME280;73920;51.902;6.374;2023-12-14T03:01:58;101113.94;;;6.15;86.42
83894;BME280;73920;51.902;6.374;2023-12-14T03:04:24;101103.50;;;6.09;86.25
83894;BME280;73920;51.902;6.374;2023-12-14T03:06:51;101129.94;;;6.12;86.25
83894;BME280;73920;51.902;6.374;2023-12-14T03:09:17;101129.94;;;6.12;86.28
83894;BME280;73920;51.902;6.374;2023-12-14T03:11:43;101128.25;;;6.11;86.16
83894;BME280;73920;51.902;6.374;2023-12-14T03:14:09;101138.00;;;6.11;86.07
83894;BME280;73920;51.902;6.374;2023-12-14T03:16:35;101138.94;;;6.08;86.09
83894;BME280;73920;51.902;6.374;2023-12-14T03:19:02;101137.22;;;6.07;86.08
83894;BME280;73920;51.902;6.374;2023-12-14T03:21:28;101146.91;;;6.08;86.02
83894;BME280;73920;51.902;6.374;2023-12-14T03:23:54;101147.84;;;6.07;85.95
83894;BME280;73920;51.902;6.374;2023-12-14T03:26:20;101150.50;;;6.07;85.57
83894;BME280;73920;51.902;6.374;2023-12-14T03:28:46;101154.97;;;6.05;85.81
83894;BME280;73920;51.902;6.374;2023-12-14T03:31:13;101159.34;;;6.06;85.68
83894;BME280;73920;51.902;6.374;2023-12-14T03:33:41;101166.44;;;6.06;85.70
83894;BME280;73920;51.902;6.374;2023-12-14T03:36:08;101161.25;;;6.03;85.62
83894;BME280;73920;51.902;6.374;2023-12-14T03:38:35;101163.00;;;6.04;85.59
83894;BME280;73920;51.902;6.374;2023-12-14T03:41:01;101170.88;;;6.05;85.86
83894;BME280;73920;51.902;6.374;2023-12-14T03:43:27;101177.94;;;6.06;85.64
83894;BME280;73920;51.902;6.374;2023-12-14T03:45:54;101185.87;;;6.08;85.75
83894;BME280;73920;51.902;6.374;2023-12-14T03:48:20;101193.75;;;6.09;85.61
83894;BME280;73920;51.902;6.374;2023-12-14T03:50:46;101188.47;;;6.09;85.53
83894;BME280;73920;51.902;6.374;2023-12-14T03:53:12;101198.28;;;6.07;85.52
83894;BME280;73920;51.902;6.374;2023-12-14T03:55:38;101191.19;;;6.08;85.50
83894;BME280;73920;51.902;6.374;2023-12-14T03:58:04;101192.03;;;6.08;85.49
83894;BME280;73920;51.902;6.374;2023-12-14T04:00:31;101197.44;;;6.05;85.18
83894;BME280;73920;51.902;6.374;2023-12-14T04:02:57;101194.88;;;6.02;85.25
83894;BME280;73920;51.902;6.374;2023-12-14T04:05:23;101195.78;;;6.01;85.04
83894;BME280;73920;51.902;6.374;2023-12-14T04:07:49;101195.00;;;5.98;84.83
83894;BME280;73920;51.902;6.374;2023-12-14T04:10:16;101207.50;;;5.94;84.87
83894;BME280;73920;51.902;6.374;2023-12-14T04:12:42;101210.22;;;5.92;84.84
83894;BME280;73920;51.902;6.374;2023-12-14T04:15:09;101208.44;;;5.93;84.89
83894;BME280;73920;51.902;6.374;2023-12-14T04:17:36;101212.00;;;5.92;84.85
83894;BME280;73920;51.902;6.374;2023-12-14T04:20:03;101214.69;;;5.90;84.88
83894;BME280;73920;51.902;6.374;2023-12-14T04:22:30;101221.69;;;5.93;85.00
83894;BME280;73920;51.902;6.374;2023-12-14T04:24:56;101228.72;;;5.94;84.90
83894;BME280;73920;51.902;6.374;2023-12-14T04:27:22;101227.00;;;5.93;84.83
83894;BME280;73920;51.902;6.374;2023-12-14T04:29:48;101237.56;;;5.94;84.92
83894;BME280;73920;51.902;6.374;2023-12-14T04:32:14;101236.69;;;5.94;84.74
83894;BME280;73920;51.902;6.374;2023-12-14T04:34:40;101233.13;;;5.95;84.76
83894;BME280;73920;51.902;6.374;2023-12-14T04:37:07;101234.97;;;5.93;84.64
83894;BME280;73920;51.902;6.374;2023-12-14T04:39:33;101239.41;;;5.92;84.34
83894;BME280;73920;51.902;6.374;2023-12-14T04:41:59;101240.28;;;5.93;84.74
83894;BME280;73920;51.902;6.374;2023-12-14T04:44:25;101245.59;;;5.93;84.66
83894;BME280;73920;51.902;6.374;2023-12-14T04:46:51;101238.53;;;5.92;84.61
83894;BME280;73920;51.902;6.374;2023-12-14T04:49:19;101250.03;;;5.92;84.71
83894;BME280;73920;51.902;6.374;2023-12-14T04:51:45;101257.13;;;5.90;84.55
83894;BME280;73920;51.902;6.374;2023-12-14T04:54:11;101258.00;;;5.91;84.38
83894;BME280;73920;51.902;6.374;2023-12-14T04:56:37;101259.75;;;5.92;84.63
83894;BME280;73920;51.902;6.374;2023-12-14T04:59:04;101256.22;;;5.91;84.65
83894;BME280;73920;51.902;6.374;2023-12-14T05:01:30;101258.88;;;5.91;84.56
83894;BME280;73920;51.902;6.374;2023-12-14T05:03:56;101258.84;;;5.93;84.51
83894;BME280;73920;51.902;6.374;2023-12-14T05:06:22;101268.53;;;5.94;84.58
83894;BME280;73920;51.902;6.374;2023-12-14T05:08:48;101268.53;;;5.94;84.52
83894;BME280;73920;51.902;6.374;2023-12-14T05:11:14;101272.06;;;5.94;84.58
83894;BME280;73920;51.902;6.374;2023-12-14T05:13:41;101280.09;;;5.93;84.11
83894;BME280;73920;51.902;6.374;2023-12-14T05:16:16;101293.28;;;5.94;84.40
83894;BME280;73920;51.902;6.374;2023-12-14T05:18:42;101303.97;;;5.93;84.16
83894;BME280;73920;51.902;6.374;2023-12-14T05:21:09;101320.84;;;5.90;84.20
83894;BME280;73920;51.902;6.374;2023-12-14T05:23:35;101319.97;;;5.90;84.33
83894;BME280;73920;51.902;6.374;2023-12-14T05:26:01;101322.59;;;5.90;84.18
83894;BME280;73920;51.902;6.374;2023-12-14T05:28:27;101338.50;;;5.91;84.29
83894;BME280;73920;51.902;6.374;2023-12-14T05:30:53;101344.69;;;5.92;84.26
83894;BME280;73920;51.902;6.374;2023-12-14T05:33:20;101341.19;;;5.90;84.01
83894;BME280;73920;51.902;6.374;2023-12-14T05:35:46;101343.03;;;5.88;84.05
83894;BME280;73920;51.902;6.374;2023-12-14T05:38:12;101349.16;;;5.90;84.14
83894;BME280;73920;51.902;6.374;2023-12-14T05:40:38;101360.59;;;5.92;84.07
83894;BME280;73920;51.902;6.374;2023-12-14T05:43:04;101362.41;;;5.90;84.01
83894;BME280;73920;51.902;6.374;2023-12-14T05:45:30;101365.13;;;5.88;84.06
83894;BME280;73920;51.902;6.374;2023-12-14T05:47:57;101368.69;;;5.87;84.02
83894;BME280;73920;51.902;6.374;2023-12-14T05:50:23;101378.44;;;5.87;84.12
83894;BME280;73920;51.902;6.374;2023-12-14T05:52:49;101382.84;;;5.86;83.94
83894;BME280;73920;51.902;6.374;2023-12-14T05:55:15;101388.12;;;5.88;83.93
83894;BME280;73920;51.902;6.374;2023-12-14T05:57:41;101395.19;;;5.89;84.03
83894;BME280;73920;51.902;6.374;2023-12-14T06:00:08;101405.84;;;5.87;83.89
83894;BME280;73920;51.902;6.374;2023-12-14T06:02:34;101397.97;;;5.83;83.91
83894;BME280;73920;51.902;6.374;2023-12-14T06:05:01;101398.91;;;5.80;84.00
83894;BME280;73920;51.902;6.374;2023-12-14T06:07:27;101416.69;;;5.78;83.86
83894;BME280;73920;51.902;6.374;2023-12-14T06:09:53;101413.25;;;5.73;83.77
83894;BME280;73920;51.902;6.374;2023-12-14T06:12:19;101417.66;;;5.74;83.84
83894;BME280;73920;51.902;6.374;2023-12-14T06:14:45;101416.81;;;5.72;83.79
83894;BME280;73920;51.902;6.374;2023-12-14T06:17:11;101424.75;;;5.74;83.83
83894;BME280;73920;51.902;6.374;2023-12-14T06:19:38;101432.66;;;5.75;84.05
83894;BME280;73920;51.902;6.374;2023-12-14T06:22:04;101414.50;;;5.59;83.91
83894;BME280;73920;51.902;6.374;2023-12-14T06:24:30;101435.34;;;5.74;84.02
83894;BME280;73920;51.902;6.374;2023-12-14T06:26:56;101452.16;;;5.74;83.88
83894;BME280;73920;51.902;6.374;2023-12-14T06:29:22;101461.00;;;5.73;83.82
83894;BME280;73920;51.902;6.374;2023-12-14T06:31:49;101468.16;;;5.71;83.73
83894;BME280;73920;51.902;6.374;2023-12-14T06:34:15;101466.34;;;5.72;83.99
83894;BME280;73920;51.902;6.374;2023-12-14T06:36:43;101474.34;;;5.70;83.73
83894;BME280;73920;51.902;6.374;2023-12-14T06:39:09;101474.37;;;5.69;84.01
83894;BME280;73920;51.902;6.374;2023-12-14T06:41:35;101481.44;;;5.70;83.57
83894;BME280;73920;51.902;6.374;2023-12-14T06:44:02;101486.81;;;5.67;84.08
83894;BME280;73920;51.902;6.374;2023-12-14T06:46:29;101485.00;;;5.69;84.25
83894;BME280;73920;51.902;6.374;2023-12-14T06:48:55;101492.06;;;5.70;84.34
83894;BME280;73920;51.902;6.374;2023-12-14T06:51:22;101494.69;;;5.71;84.30
83894;BME280;73920;51.902;6.374;2023-12-14T06:53:48;101501.72;;;5.72;84.42
83894;BME280;73920;51.902;6.374;2023-12-14T06:56:15;101499.03;;;5.74;84.44
83894;BME280;73920;51.902;6.374;2023-12-14T06:58:43;101498.16;;;5.73;84.46
83894;BME280;73920;51.902;6.374;2023-12-14T07:01:15;101495.47;;;5.75;84.51
83894;BME280;73920;51.902;6.374;2023-12-14T07:03:41;101493.66;;;5.75;84.47
83894;BME280;73920;51.902;6.374;2023-12-14T07:06:12;101499.81;;;5.77;84.51
83894;BME280;73920;51.902;6.374;2023-12-14T07:08:39;101499.91;;;5.74;84.41
83894;BME280;73920;51.902;6.374;2023-12-14T07:11:06;101499.94;;;5.73;84.41
83894;BME280;73920;51.902;6.374;2023-12-14T07:13:32;101508.78;;;5.72;84.22
83894;BME280;73920;51.902;6.374;2023-12-14T07:15:59;101519.53;;;5.67;84.25
83894;BME280;73920;51.902;6.374;2023-12-14T07:18:25;101523.97;;;5.67;84.19
83894;BME280;73920;51.902;6.374;2023-12-14T07:20:51;101525.66;;;5.69;84.23
83894;BME280;73920;51.902;6.374;2023-12-14T07:23:18;101529.19;;;5.70;84.29
83894;BME280;73920;51.902;6.374;2023-12-14T07:25:44;101533.59;;;5.71;84.38
83894;BME280;73920;51.902;6.374;2023-12-14T07:28:10;101532.75;;;5.69;84.40
83894;BME280;73920;51.902;6.374;2023-12-14T07:30:36;101546.94;;;5.68;84.17
83894;BME280;73920;51.902;6.374;2023-12-14T07:33:02;101550.50;;;5.67;84.34
83894;BME280;73920;51.902;6.374;2023-12-14T07:35:29;101555.81;;;5.67;84.17
83894;BME280;73920;51.902;6.374;2023-12-14T07:37:55;101556.69;;;5.67;84.15
83894;BME280;73920;51.902;6.374;2023-12-14T07:40:21;101568.19;;;5.66;84.31
83894;BME280;73920;51.902;6.374;2023-12-14T07:42:47;101563.78;;;5.65;84.23
83894;BME280;73920;51.902;6.374;2023-12-14T07:45:13;101575.31;;;5.64;84.23
83894;BME280;73920;51.902;6.374;2023-12-14T07:47:40;101584.19;;;5.63;84.25
83894;BME280;73920;51.902;6.374;2023-12-14T07:50:07;101584.12;;;5.65;84.34
83894;BME280;73920;51.902;6.374;2023-12-14T07:52:34;101591.19;;;5.66;84.27
83894;BME280;73920;51.902;6.374;2023-12-14T07:55:00;101601.81;;;5.66;84.30
83894;BME280;73920;51.902;6.374;2023-12-14T07:57:26;101601.00;;;5.61;84.26
83894;BME280;73920;51.902;6.374;2023-12-14T07:59:52;101605.44;;;5.62;84.35
83894;BME280;73920;51.902;6.374;2023-12-14T08:02:19;101611.69;;;5.58;84.28
83894;BME280;73920;51.902;6.374;2023-12-14T08:04:45;101618.91;;;5.53;84.26
83894;BME280;73920;51.902;6.374;2023-12-14T08:07:11;101621.56;;;5.53;84.33
83894;BME280;73920;51.902;6.374;2023-12-14T08:09:37;101626.87;;;5.53;84.46
83894;BME280;73920;51.902;6.374;2023-12-14T08:12:04;101641.03;;;5.52;84.25
83894;BME280;73920;51.902;6.374;2023-12-14T08:14:33;101646.31;;;5.52;84.40
83894;BME280;73920;51.902;6.374;2023-12-14T08:16:59;101647.28;;;5.49;84.27
83894;BME280;73920;51.902;6.374;2023-12-14T08:19:26;101661.44;;;5.46;84.03
83894;BME280;73920;51.902;6.374;2023-12-14T08:21:52;101659.75;;;5.44;84.33
83894;BME280;73920;51.902;6.374;2023-12-14T08:24:18;101666.75;;;5.46;84.31
83894;BME280;73920;51.902;6.374;2023-12-14T08:26:44;101666.72;;;5.48;84.49
83894;BME280;73920;51.902;6.374;2023-12-14T08:29:11;101674.63;;;5.51;84.49
83894;BME280;73920;51.902;6.374;2023-12-14T08:31:37;101685.22;;;5.53;84.60
83894;BME280;73920;51.902;6.374;2023-12-14T08:34:03;101683.38;;;5.55;84.45
83894;BME280;73920;51.902;6.374;2023-12-14T08:36:29;101692.25;;;5.54;84.38
83894;BME280;73920;51.902;6.374;2023-12-14T08:38:55;101696.69;;;5.53;84.32
83894;BME280;73920;51.902;6.374;2023-12-14T08:41:22;101711.63;;;5.57;84.35
83894;BME280;73920;51.902;6.374;2023-12-14T08:43:48;101706.31;;;5.57;84.33
83894;BME280;73920;51.902;6.374;2023-12-14T08:46:14;101708.13;;;5.57;84.39
83894;BME280;73920;51.902;6.374;2023-12-14T08:48:40;101712.47;;;5.59;84.31
83894;BME280;73920;51.902;6.374;2023-12-14T08:51:07;101708.97;;;5.57;84.22
83894;BME280;73920;51.902;6.374;2023-12-14T08:53:33;101716.09;;;5.55;84.12
83894;BME280;73920;51.902;6.374;2023-12-14T08:55:59;101720.53;;;5.55;84.21
83894;BME280;73920;51.902;6.374;2023-12-14T08:58:25;101714.28;;;5.57;84.30
83894;BME280;73920;51.902;6.374;2023-12-14T09:00:51;101718.66;;;5.60;84.32
83894;BME280;73920;51.902;6.374;2023-12-14T09:03:18;101712.41;;;5.62;84.40
83894;BME280;73920;51.902;6.374;2023-12-14T09:05:45;101720.34;;;5.64;84.31
83894;BME280;73920;51.902;6.374;2023-12-14T09:08:11;101727.44;;;5.63;84.19
83894;BME280;73920;51.902;6.374;2023-12-14T09:10:40;101725.66;;;5.64;84.28
83894;BME280;73920;51.902;6.374;2023-12-14T09:13:07;101734.44;;;5.66;84.30
83894;BME280;73920;51.902;6.374;2023-12-14T09:15:33;101735.34;;;5.65;84.26
83894;BME280;73920;51.902;6.374;2023-12-14T09:18:00;101740.62;;;5.66;84.12
83894;BME280;73920;51.902;6.374;2023-12-14T09:20:26;101747.69;;;5.67;84.17
83894;BME280;73920;51.902;6.374;2023-12-14T09:22:53;101748.56;;;5.68;84.08
83894;BME280;73920;51.902;6.374;2023-12-14T09:25:19;101743.28;;;5.68;84.12
83894;BME280;73920;51.902;6.374;2023-12-14T09:27:45;101754.69;;;5.71;84.08
83894;BME280;73920;51.902;6.374;2023-12-14T09:30:12;101746.69;;;5.73;84.11
83894;BME280;73920;51.902;6.374;2023-12-14T09:32:39;101750.22;;;5.73;84.07
83894;BME280;73920;51.902;6.374;2023-12-14T09:35:06;101759.94;;;5.73;84.07
83894;BME280;73920;51.902;6.374;2023-12-14T09:37:32;101752.88;;;5.73;84.12
83894;BME280;73920;51.902;6.374;2023-12-14T09:39:58;101764.31;;;5.75;84.05
83894;BME280;73920;51.902;6.374;2023-12-14T09:42:24;101774.94;;;5.75;83.97
83894;BME280;73920;51.902;6.374;2023-12-14T09:44:52;101776.75;;;5.75;83.80
83894;BME280;73920;51.902;6.374;2023-12-14T09:47:19;101778.53;;;5.73;83.80
83894;BME280;73920;51.902;6.374;2023-12-14T09:49:46;101786.47;;;5.74;83.83
83894;BME280;73920;51.902;6.374;2023-12-14T09:52:14;101788.25;;;5.74;83.83
83894;BME280;73920;51.902;6.374;2023-12-14T09:54:40;101797.97;;;5.75;83.92
83894;BME280;73920;51.902;6.374;2023-12-14T09:57:06;101804.09;;;5.77;83.94
83894;BME280;73920;51.902;6.374;2023-12-14T09:59:32;101788.47;;;5.63;83.69
83894;BME280;73920;51.902;6.374;2023-12-14T10:02:08;101809.41;;;5.77;83.66
83894;BME280;73920;51.902;6.374;2023-12-14T10:04:36;101813.00;;;5.74;83.32
83894;BME280;73920;51.902;6.374;2023-12-14T10:07:02;101820.91;;;5.76;83.41
83894;BME280;73920;51.902;6.374;2023-12-14T10:09:28;101818.31;;;5.74;83.18
83894;BME280;73920;51.902;6.374;2023-12-14T10:14:33;101816.56;;;5.72;83.17
83894;BME280;73920;51.902;6.374;2023-12-14T10:19:45;101832.53;;;5.70;82.91
83894;BME280;73920;51.902;6.374;2023-12-14T10:22:15;101829.84;;;5.72;82.90
83894;BME280;73920;51.902;6.374;2023-12-14T10:24:48;101836.81;;;5.77;83.01
83894;BME280;73920;51.902;6.374;2023-12-14T10:27:16;101840.28;;;5.81;83.11
83894;BME280;73920;51.902;6.374;2023-12-14T10:29:42;101850.81;;;5.87;82.99
83894;BME280;73920;51.902;6.374;2023-12-14T10:32:09;101849.03;;;5.87;82.88
83894;BME280;73920;51.902;6.374;2023-12-14T10:34:36;101806.16;;;5.63;82.78
83894;BME280;73920;51.902;6.374;2023-12-14T10:37:05;101852.56;;;5.88;82.63
83894;BME280;73920;51.902;6.374;2023-12-14T10:39:33;101858.78;;;5.85;82.44
83894;BME280;73920;51.902;6.374;2023-12-14T10:42:02;101859.72;;;5.86;82.22
83894;BME280;73920;51.902;6.374;2023-12-14T10:44:29;101860.56;;;5.85;82.38
83894;BME280;73920;51.902;6.374;2023-12-14T10:46:58;101866.75;;;5.87;82.23
83894;BME280;73920;51.902;6.374;2023-12-14T10:49:25;101861.44;;;5.87;82.16
83894;BME280;73920;51.902;6.374;2023-12-14T10:51:54;101849.19;;;5.78;81.97
83894;BME280;73920;51.902;6.374;2023-12-14T10:54:22;101873.81;;;5.88;81.91
83894;BME280;73920;51.902;6.374;2023-12-14T10:56:49;101876.41;;;5.91;82.02
83894;BME280;73920;51.902;6.374;2023-12-14T10:59:16;101878.16;;;5.90;81.72
83894;BME280;73920;51.902;6.374;2023-12-14T11:01:42;101880.00;;;5.88;81.35
83894;BME280;73920;51.902;6.374;2023-12-14T11:04:08;101886.25;;;5.86;81.40
83894;BME280;73920;51.902;6.374;2023-12-14T11:06:37;101882.66;;;5.87;81.51
83894;BME280;73920;51.902;6.374;2023-12-14T11:09:08;101880.00;;;5.87;81.30
83894;BME280;73920;51.902;6.374;2023-12-14T11:11:40;101876.44;;;5.89;81.59
83894;BME280;73920;51.902;6.374;2023-12-14T11:14:08;101882.56;;;5.93;81.79
83894;BME280;73920;51.902;6.374;2023-12-14T11:16:37;101884.28;;;5.96;81.77
83894;BME280;73920;51.902;6.374;2023-12-14T11:21:40;101905.44;;;6.00;81.91
83894;BME280;73920;51.902;6.374;2023-12-14T11:24:06;101903.69;;;5.99;81.45
83894;BME280;73920;51.902;6.374;2023-12-14T11:26:32;101908.13;;;5.97;81.39
83894;BME280;73920;51.902;6.374;2023-12-14T11:28:58;101912.53;;;5.98;81.70
83894;BME280;73920;51.902;6.374;2023-12-14T11:31:25;101922.25;;;5.99;81.72
83894;BME280;73920;51.902;6.374;2023-12-14T11:33:51;101916.09;;;5.97;81.72
83894;BME280;73920;51.902;6.374;2023-12-14T11:36:17;101912.59;;;5.95;81.69
83894;BME280;73920;51.902;6.374;2023-12-14T11:38:44;101906.47;;;5.91;81.61
83894;BME280;73920;51.902;6.374;2023-12-14T11:41:10;101903.00;;;5.88;81.43
83894;BME280;73920;51.902;6.374;2023-12-14T11:43:42;101915.44;;;5.86;81.59
83894;BME280;73920;51.902;6.374;2023-12-14T11:46:12;101911.00;;;5.83;81.65
83894;BME280;73920;51.902;6.374;2023-12-14T11:48:39;101909.22;;;5.84;81.52
83894;BME280;73920;51.902;6.374;2023-12-14T11:51:07;101901.34;;;5.81;81.36
83894;BME280;73920;51.902;6.374;2023-12-14T11:53:33;101914.53;;;5.84;81.62
83894;BME280;73920;51.902;6.374;2023-12-14T11:56:01;101925.13;;;5.87;81.50
83894;BME280;73920;51.902;6.374;2023-12-14T11:58:27;101933.06;;;5.88;81.62
83894;BME280;73920;51.902;6.374;2023-12-14T12:00:53;101940.16;;;5.89;81.39
83894;BME280;73920;51.902;6.374;2023-12-14T12:03:20;101937.53;;;5.85;81.61
83894;BME280;73920;51.902;6.374;2023-12-14T12:05:49;101935.75;;;5.85;81.66
83894;BME280;73920;51.902;6.374;2023-12-14T12:08:17;101931.34;;;5.84;81.78
83894;BME280;73920;51.902;6.374;2023-12-14T12:10:45;101938.47;;;5.81;81.50
83894;BME280;73920;51.902;6.374;2023-12-14T12:13:13;101934.06;;;5.80;81.69
83894;BME280;73920;51.902;6.374;2023-12-14T12:15:40;101934.06;;;5.80;81.74
83894;BME280;73920;51.902;6.374;2023-12-14T12:18:11;101937.59;;;5.82;81.73
83894;BME280;73920;51.902;6.374;2023-12-14T12:20:38;101944.63;;;5.84;81.90
83894;BME280;73920;51.902;6.374;2023-12-14T12:23:04;101947.25;;;5.87;81.92
83894;BME280;73920;51.902;6.374;2023-12-14T12:25:32;101948.13;;;5.88;81.99
83894;BME280;73920;51.902;6.374;2023-12-14T12:27:59;101952.53;;;5.89;81.85
83894;BME280;73920;51.902;6.374;2023-12-14T12:30:26;101952.50;;;5.90;82.01
83894;BME280;73920;51.902;6.374;2023-12-14T12:32:52;101953.38;;;5.91;81.87
83894;BME280;73920;51.902;6.374;2023-12-14T12:35:19;101956.03;;;5.91;81.97
83894;BME280;73920;51.902;6.374;2023-12-14T12:37:46;101965.75;;;5.92;81.90
83894;BME280;73920;51.902;6.374;2023-12-14T12:40:12;101958.75;;;5.86;81.95
83894;BME280;73920;51.902;6.374;2023-12-14T12:42:38;101963.06;;;5.93;82.12
83894;BME280;73920;51.902;6.374;2023-12-14T12:45:06;101968.34;;;5.93;82.08
83894;BME280;73920;51.902;6.374;2023-12-14T12:47:32;101968.34;;;5.93;82.10
83894;BME280;73920;51.902;6.374;2023-12-14T12:49:58;101971.88;;;5.96;82.08
83894;BME280;73920;51.902;6.374;2023-12-14T12:52:24;101964.78;;;5.96;82.21
83894;BME280;73920;51.902;6.374;2023-12-14T12:54:50;101963.88;;;5.97;82.27
83894;BME280;73920;51.902;6.374;2023-12-14T12:57:17;101968.34;;;5.97;82.21
83894;BME280;73920;51.902;6.374;2023-12-14T12:59:43;101970.06;;;5.98;82.19
83894;BME280;73920;51.902;6.374;2023-12-14T13:02:09;101970.06;;;5.98;82.29
83894;BME280;73920;51.902;6.374;2023-12-14T13:04:35;101979.78;;;5.99;82.35
83894;BME280;73920;51.902;6.374;2023-12-14T13:07:02;101969.19;;;5.97;82.26